Eagan, Tennessee
Current Conditions -  °F | °C
As of 11:35 AM on Sunday 21 Dec 2014 (Local Time) from K1A6 Reporting Station
Clear Clear  
Wind Chill: 37°   Ceiling: Unl
Heat Index: 37°   Visibility: 10mi
Dew Point: 31°   Wind: 0mph
Humidity: 81%   Direction: NA
Pressure: 30.24"   Gusts: NA
Location:  36.55°N, 83.98°W
Report Text: K1A6 211635Z AUTO 00000KT 10SM CLR 03/00 A3024 RMK AO2 T00251004
Loading
Personal Weather Stations






























Interactive Weather Map New forecast layout! Learn more

10-Day Weather Forecast

Advertisements
Track Severe Weather on mobile